Time;durP1;ratioP1;P1;durP2;ratioP2;P2;SDS_P1;SDS_P2;PMS_P1;PMS_P2;Temp;Humidity;BMP_temperature;BMP_pressure;BME280_temperature;BME280_humidity;BME280_pressure;Samples;Min_cycle;Max_cycle;Signal;HPM_P1;HPM_P2
2022/12/10 00:01:19;;;;;;;81.53;39.15;;;;;;;;;;4999183;28;100978;-72
2022/12/10 00:03:46;;;;;;;82.88;38.13;;;;;;;;;;4994675;28;99175;-72
2022/12/10 00:06:13;;;;;;;84.47;39.75;;;;;;;;;;4998469;28;99583;-71
2022/12/10 00:08:40;;;;;;;77.95;38.03;;;;;;;;;;4999025;28;100315;-72
2022/12/10 00:11:07;;;;;;;84.05;37.92;;;;;;;;;;5000536;28;100082;-72
2022/12/10 00:13:34;;;;;;;83.30;37.45;;;;;;;;;;5000084;28;100192;-72
2022/12/10 00:16:01;;;;;;;80.20;37.28;;;;;;;;;;4983457;28;99222;-72
2022/12/10 00:18:28;;;;;;;71.30;35.28;;;;;;;;;;4988347;28;99997;-72
2022/12/10 00:20:55;;;;;;;82.10;38.72;;;;;;;;;;4991894;28;99234;-72
2022/12/10 00:23:21;;;;;;;83.22;40.30;;;;;;;;;;4992998;28;100228;-72
2022/12/10 00:25:49;;;;;;;86.30;40.80;;;;;;;;;;4991857;28;100033;-71
2022/12/10 00:28:15;;;;;;;82.72;38.28;;;;;;;;;;4995075;28;100167;-72
2022/12/10 00:30:42;;;;;;;87.80;40.30;;;;;;;;;;5002887;28;99058;-72
2022/12/10 00:33:09;;;;;;;99.97;43.13;;;;;;;;;;5003057;28;99550;-72
2022/12/10 00:35:36;;;;;;;81.10;38.97;;;;;;;;;;4989196;28;99101;-73
2022/12/10 00:38:02;;;;;;;93.80;40.13;;;;;;;;;;4990014;28;99121;-72
2022/12/10 00:40:29;;;;;;;92.55;42.28;;;;;;;;;;5002040;28;99080;-72
2022/12/10 00:42:55;;;;;;;93.00;41.45;;;;;;;;;;4989977;28;98898;-72
2022/12/10 00:45:22;;;;;;;83.32;38.30;;;;;;;;;;5001094;28;99433;-73
2022/12/10 00:47:48;;;;;;;102.90;44.90;;;;;;;;;;4991319;28;99139;-72
2022/12/10 00:50:15;;;;;;;83.38;39.17;;;;;;;;;;4995686;28;99284;-72
2022/12/10 00:52:41;;;;;;;95.85;42.00;;;;;;;;;;4994216;28;99309;-72
2022/12/10 00:55:08;;;;;;;88.75;41.70;;;;;;;;;;4972247;28;100251;-72
2022/12/10 00:57:34;;;;;;;98.63;42.63;;;;;;;;;;5000955;28;98801;-72
2022/12/10 01:00:01;;;;;;;90.50;38.63;;;;;;;;;;4984723;28;99973;-71
2022/12/10 01:02:27;;;;;;;96.22;43.13;;;;;;;;;;4992512;28;100057;-72
2022/12/10 01:04:54;;;;;;;89.22;42.03;;;;;;;;;;4987254;28;98998;-71
2022/12/10 01:07:20;;;;;;;88.07;40.70;;;;;;;;;;4996154;28;98753;-71
2022/12/10 01:09:47;;;;;;;95.90;43.65;;;;;;;;;;4989580;28;99665;-70
2022/12/10 01:12:13;;;;;;;86.78;40.30;;;;;;;;;;4971259;28;102245;-71
2022/12/10 01:14:40;;;;;;;94.45;40.33;;;;;;;;;;4994429;28;99240;-72
2022/12/10 01:17:08;;;;;;;89.18;39.17;;;;;;;;;;4972601;28;100764;-72
2022/12/10 01:19:34;;;;;;;104.45;41.28;;;;;;;;;;4998630;28;99474;-71
2022/12/10 01:22:01;;;;;;;93.18;41.33;;;;;;;;;;4974907;28;101917;-71
2022/12/10 01:24:28;;;;;;;91.78;41.25;;;;;;;;;;4987374;28;99026;-71
2022/12/10 01:26:55;;;;;;;98.07;41.90;;;;;;;;;;4965916;28;102319;-72
2022/12/10 01:29:21;;;;;;;92.65;39.28;;;;;;;;;;4983280;28;99690;-72
2022/12/10 01:31:50;;;;;;;104.07;41.53;;;;;;;;;;4992886;28;100359;-72
2022/12/10 01:34:17;;;;;;;106.40;43.85;;;;;;;;;;5000129;28;98787;-72
2022/12/10 01:36:44;;;;;;;89.63;39.83;;;;;;;;;;4994375;28;99007;-72
2022/12/10 01:39:13;;;;;;;85.07;40.78;;;;;;;;;;4971994;28;100317;-71
2022/12/10 01:41:41;;;;;;;100.75;41.92;;;;;;;;;;4990172;28;99336;-72
2022/12/10 01:44:08;;;;;;;89.95;40.05;;;;;;;;;;4972832;28;101429;-71
2022/12/10 01:46:34;;;;;;;98.18;41.17;;;;;;;;;;4998739;28;100451;-71
2022/12/10 01:49:03;;;;;;;98.45;41.78;;;;;;;;;;5002454;28;99277;-72
2022/12/10 01:51:31;;;;;;;116.20;43.83;;;;;;;;;;5004201;28;100050;-72
2022/12/10 01:53:58;;;;;;;112.35;43.75;;;;;;;;;;4994868;28;99630;-71
2022/12/10 01:56:25;;;;;;;118.80;44.40;;;;;;;;;;4976661;28;100992;-71
2022/12/10 01:58:54;;;;;;;117.03;45.88;;;;;;;;;;4980655;28;100153;-71
2022/12/10 02:01:29;;;;;;;238.77;52.53;;;;;;;;;;4994342;28;98815;-72
2022/12/10 02:04:02;;;;;;;219.63;43.42;;;;;;;;;;4994404;28;100078;-71
2022/12/10 02:06:38;;;;;;;240.52;46.60;;;;;;;;;;4986980;28;99650;-72
2022/12/10 02:09:25;;;;;;;159.73;41.03;;;;;;;;;;4996761;28;100330;-71
2022/12/10 02:12:10;;;;;;;148.65;48.20;;;;;;;;;;4998040;28;99849;-72
2022/12/10 02:14:37;;;;;;;133.02;44.95;;;;;;;;;;4978369;28;101334;-71
2022/12/10 02:17:12;;;;;;;144.10;42.67;;;;;;;;;;4995523;28;99967;-71
2022/12/10 02:20:01;;;;;;;167.35;43.72;;;;;;;;;;4976695;28;100202;-72
2022/12/10 02:22:29;;;;;;;274.58;39.45;;;;;;;;;;4990636;28;98930;-71
2022/12/10 02:24:57;;;;;;;221.30;44.15;;;;;;;;;;4996653;28;98963;-72
2022/12/10 02:27:52;;;;;;;189.73;44.85;;;;;;;;;;4973416;28;101674;-71
2022/12/10 02:30:19;;;;;;;239.50;43.63;;;;;;;;;;4967891;28;101415;-72
2022/12/10 02:32:47;;;;;;;141.73;41.03;;;;;;;;;;4982785;28;101099;-72
2022/12/10 02:35:17;;;;;;;312.40;50.42;;;;;;;;;;4973729;28;100635;-73
2022/12/10 02:37:49;;;;;;;210.38;48.70;;;;;;;;;;4994137;28;98820;-70
2022/12/10 02:40:18;;;;;;;174.05;45.75;;;;;;;;;;4996378;28;100117;-71
2022/12/10 02:42:50;;;;;;;182.88;48.83;;;;;;;;;;4986411;28;101469;-71
2022/12/10 02:45:19;;;;;;;245.10;50.30;;;;;;;;;;4978301;28;100436;-71
2022/12/10 02:47:49;;;;;;;165.82;48.05;;;;;;;;;;4980130;28;100454;-72
2022/12/10 02:50:18;;;;;;;209.88;47.58;;;;;;;;;;4983097;28;99397;-72
2022/12/10 02:52:48;;;;;;;192.82;46.42;;;;;;;;;;4978353;28;101398;-72
2022/12/10 02:55:14;;;;;;;118.00;38.63;;;;;;;;;;5002058;28;99940;-72
2022/12/10 02:58:03;;;;;;;165.30;44.90;;;;;;;;;;4985702;28;98970;-71
2022/12/10 03:00:31;;;;;;;216.93;47.33;;;;;;;;;;4978760;28;100467;-71
2022/12/10 03:03:02;;;;;;;228.40;42.00;;;;;;;;;;4967780;28;101482;-71
2022/12/10 03:05:34;;;;;;;148.45;37.72;;;;;;;;;;4974543;28;101662;-71
2022/12/10 03:08:08;;;;;;;219.13;42.70;;;;;;;;;;4996467;28;100101;-71
2022/12/10 03:10:58;;;;;;;172.95;39.22;;;;;;;;;;5001256;28;100185;-72
2022/12/10 03:13:28;;;;;;;128.95;41.17;;;;;;;;;;4994616;28;100357;-72
2022/12/10 03:15:55;;;;;;;184.23;42.72;;;;;;;;;;4998693;28;99583;-71
2022/12/10 03:18:23;;;;;;;229.85;45.00;;;;;;;;;;5001049;28;100041;-71
2022/12/10 03:20:50;;;;;;;302.23;47.17;;;;;;;;;;4993811;28;100220;-72
2022/12/10 03:23:18;;;;;;;266.60;47.00;;;;;;;;;;4999499;28;100117;-71
2022/12/10 03:25:46;;;;;;;262.48;44.53;;;;;;;;;;4992232;28;100006;-71
2022/12/10 03:28:13;;;;;;;250.35;45.30;;;;;;;;;;4995753;28;99788;-71
2022/12/10 03:30:41;;;;;;;353.58;47.85;;;;;;;;;;4988326;28;100154;-72
2022/12/10 03:33:07;;;;;;;298.13;42.28;;;;;;;;;;4989082;28;100205;-71
2022/12/10 03:35:34;;;;;;;290.48;40.75;;;;;;;;;;4984906;28;100711;-71
2022/12/10 03:38:01;;;;;;;253.00;42.17;;;;;;;;;;4985183;28;99233;-70
2022/12/10 03:40:28;;;;;;;248.65;39.50;;;;;;;;;;4966785;28;99611;-71
2022/12/10 03:42:54;;;;;;;166.57;37.72;;;;;;;;;;4988489;28;100276;-71
2022/12/10 03:45:21;;;;;;;268.15;39.53;;;;;;;;;;5003716;28;100387;-71
2022/12/10 03:47:49;;;;;;;239.25;39.60;;;;;;;;;;4984358;28;100585;-72
2022/12/10 03:50:15;;;;;;;260.73;41.38;;;;;;;;;;4992147;28;100177;-72
2022/12/10 03:52:42;;;;;;;203.93;39.80;;;;;;;;;;4995099;28;100307;-72
2022/12/10 03:55:09;;;;;;;166.88;35.92;;;;;;;;;;4989695;28;99577;-72
2022/12/10 03:57:35;;;;;;;181.50;39.90;;;;;;;;;;4984205;28;98943;-72
2022/12/10 04:00:04;;;;;;;321.15;44.30;;;;;;;;;;4991021;28;100235;-71
2022/12/10 04:02:37;;;;;;;205.18;40.33;;;;;;;;;;4985733;28;98160;-71
2022/12/10 04:05:04;;;;;;;278.50;39.92;;;;;;;;;;5006764;28;99215;-72
2022/12/10 04:07:31;;;;;;;211.48;39.70;;;;;;;;;;5001918;28;100138;-72
2022/12/10 04:09:57;;;;;;;125.18;34.50;;;;;;;;;;4984079;28;99902;-71
2022/12/10 04:12:23;;;;;;;242.15;39.17;;;;;;;;;;4984074;28;99770;-71
2022/12/10 04:17:35;;;;;;;274.85;37.33;;;;;;;;;;4992935;28;99101;-71
2022/12/10 04:20:01;;;;;;;196.32;33.17;;;;;;;;;;5003924;28;100935;-71
2022/12/10 04:27:58;;;;;;;290.00;38.67;;;;;;;;;;4999672;28;101787;-71
2022/12/10 04:30:24;;;;;;;146.98;34.63;;;;;;;;;;4988006;28;100036;-72
2022/12/10 04:32:51;;;;;;;265.92;34.97;;;;;;;;;;4994186;28;100518;-71
2022/12/10 04:35:17;;;;;;;164.55;32.95;;;;;;;;;;4991555;28;101011;-71
2022/12/10 04:37:44;;;;;;;199.07;38.47;;;;;;;;;;4990845;28;99425;-71
2022/12/10 04:40:11;;;;;;;187.95;34.50;;;;;;;;;;4992639;28;99987;-72
2022/12/10 04:42:37;;;;;;;165.90;33.30;;;;;;;;;;4991669;28;100170;-73
2022/12/10 04:45:04;;;;;;;185.82;35.53;;;;;;;;;;4987907;28;99169;-70
2022/12/10 04:47:30;;;;;;;151.85;36.15;;;;;;;;;;4995447;28;100370;-71
2022/12/10 04:49:56;;;;;;;180.52;37.15;;;;;;;;;;4988771;28;100039;-71
2022/12/10 04:52:23;;;;;;;179.63;37.05;;;;;;;;;;4989241;28;99126;-71
2022/12/10 04:54:49;;;;;;;170.65;38.22;;;;;;;;;;5000139;28;99371;-71
2022/12/10 04:57:16;;;;;;;137.38;36.40;;;;;;;;;;4991648;28;100729;-71
2022/12/10 04:59:43;;;;;;;168.45;40.17;;;;;;;;;;4985653;28;99324;-71
2022/12/10 05:02:09;;;;;;;197.75;40.97;;;;;;;;;;4987412;28;99294;-71
2022/12/10 05:04:36;;;;;;;177.02;38.25;;;;;;;;;;5002603;28;100127;-71
2022/12/10 05:07:02;;;;;;;199.82;39.45;;;;;;;;;;4997719;28;99122;-72
2022/12/10 05:09:29;;;;;;;152.25;38.80;;;;;;;;;;4999133;28;100297;-72
2022/12/10 05:11:55;;;;;;;192.18;37.58;;;;;;;;;;4991165;28;99274;-72
2022/12/10 05:14:22;;;;;;;219.35;37.88;;;;;;;;;;5000711;28;100227;-72
2022/12/10 05:16:49;;;;;;;159.57;38.53;;;;;;;;;;5006828;28;100926;-71
2022/12/10 05:19:15;;;;;;;153.45;38.08;;;;;;;;;;4986582;28;98623;-71
2022/12/10 05:24:26;;;;;;;197.52;37.78;;;;;;;;;;4994975;28;100417;-72
2022/12/10 05:26:53;;;;;;;173.45;40.00;;;;;;;;;;4996176;28;99826;-71
2022/12/10 05:29:19;;;;;;;140.88;40.13;;;;;;;;;;4993842;28;100978;-71
2022/12/10 05:31:46;;;;;;;146.73;39.25;;;;;;;;;;4986103;28;100324;-72
2022/12/10 05:34:12;;;;;;;278.60;44.47;;;;;;;;;;5000852;28;99264;-72
2022/12/10 05:36:39;;;;;;;222.45;42.55;;;;;;;;;;4998160;28;100227;-71
2022/12/10 05:39:05;;;;;;;184.02;42.17;;;;;;;;;;5003763;28;100143;-71
2022/12/10 05:41:34;;;;;;;202.02;42.22;;;;;;;;;;4997056;28;99758;-72
2022/12/10 05:44:00;;;;;;;287.40;47.75;;;;;;;;;;4998098;28;99082;-72
2022/12/10 05:46:28;;;;;;;168.00;45.20;;;;;;;;;;5004542;28;100586;-72
2022/12/10 05:48:55;;;;;;;220.82;45.72;;;;;;;;;;5004474;28;100331;-72
2022/12/10 05:51:23;;;;;;;167.80;43.25;;;;;;;;;;4990044;28;98923;-72
2022/12/10 05:53:50;;;;;;;247.32;47.55;;;;;;;;;;4997347;28;100267;-72
2022/12/10 05:56:18;;;;;;;266.92;46.97;;;;;;;;;;4999435;28;99282;-72
2022/12/10 05:58:45;;;;;;;174.40;43.70;;;;;;;;;;4996101;28;100239;-72
2022/12/10 06:01:14;;;;;;;195.93;46.35;;;;;;;;;;4991875;28;100468;-72
2022/12/10 06:03:40;;;;;;;238.65;50.75;;;;;;;;;;4997597;28;100198;-73
2022/12/10 06:06:07;;;;;;;147.10;42.13;;;;;;;;;;4997638;28;100295;-72
2022/12/10 06:08:33;;;;;;;240.18;48.05;;;;;;;;;;4996998;28;99447;-72
2022/12/10 06:11:01;;;;;;;206.32;45.92;;;;;;;;;;4997915;28;100359;-72
2022/12/10 06:13:27;;;;;;;182.70;41.08;;;;;;;;;;4989437;28;100459;-71
2022/12/10 06:15:53;;;;;;;144.50;42.60;;;;;;;;;;5003088;28;99388;-71
2022/12/10 06:18:20;;;;;;;103.82;36.33;;;;;;;;;;5002295;28;99993;-71
2022/12/10 06:20:47;;;;;;;104.72;36.40;;;;;;;;;;4998226;28;101290;-71
2022/12/10 06:23:13;;;;;;;173.88;40.50;;;;;;;;;;5002935;28;100167;-71
2022/12/10 06:25:40;;;;;;;133.38;38.95;;;;;;;;;;4996113;28;100780;-71
2022/12/10 06:28:07;;;;;;;139.77;37.90;;;;;;;;;;5001219;28;100742;-72
2022/12/10 06:30:33;;;;;;;72.90;30.73;;;;;;;;;;4992029;28;99982;-72
2022/12/10 06:33:00;;;;;;;126.05;33.47;;;;;;;;;;5005640;28;98539;-73
2022/12/10 06:35:26;;;;;;;101.03;34.10;;;;;;;;;;4996162;28;100694;-72
2022/12/10 06:37:53;;;;;;;110.68;36.88;;;;;;;;;;4999932;28;100898;-73
2022/12/10 06:40:19;;;;;;;106.80;34.88;;;;;;;;;;5004868;28;100609;-72
2022/12/10 06:42:45;;;;;;;118.85;36.75;;;;;;;;;;4992180;28;99105;-72
2022/12/10 06:45:12;;;;;;;93.28;34.25;;;;;;;;;;4986118;28;100073;-72
2022/12/10 06:47:38;;;;;;;135.00;36.40;;;;;;;;;;4989006;28;99680;-73
2022/12/10 06:50:08;;;;;;;110.53;38.45;;;;;;;;;;4989181;28;100062;-72
2022/12/10 06:52:35;;;;;;;138.35;36.45;;;;;;;;;;4996879;28;100105;-72
2022/12/10 06:55:02;;;;;;;118.22;35.45;;;;;;;;;;5005971;28;99423;-73
2022/12/10 06:57:28;;;;;;;124.63;36.80;;;;;;;;;;4994160;28;100223;-72
2022/12/10 06:59:55;;;;;;;188.15;42.35;;;;;;;;;;5001996;28;99273;-72
2022/12/10 07:02:21;;;;;;;97.15;33.53;;;;;;;;;;4996569;28;99969;-73
2022/12/10 07:04:48;;;;;;;121.75;34.95;;;;;;;;;;4999738;28;100895;-72
2022/12/10 07:07:14;;;;;;;120.60;33.13;;;;;;;;;;4985102;28;99454;-72
2022/12/10 07:09:40;;;;;;;100.68;33.63;;;;;;;;;;5004755;28;99964;-73
2022/12/10 07:12:07;;;;;;;103.97;35.47;;;;;;;;;;4997380;28;99099;-72
2022/12/10 07:14:33;;;;;;;135.27;33.40;;;;;;;;;;4986716;28;99337;-72
2022/12/10 07:17:02;;;;;;;74.43;32.15;;;;;;;;;;4999153;28;99394;-72
2022/12/10 07:19:28;;;;;;;118.38;34.13;;;;;;;;;;4985631;28;99205;-72
2022/12/10 07:21:54;;;;;;;114.82;35.75;;;;;;;;;;5008278;28;100322;-70
2022/12/10 07:24:21;;;;;;;88.63;31.42;;;;;;;;;;4995881;28;99106;-70
2022/12/10 07:26:47;;;;;;;102.38;34.85;;;;;;;;;;4995556;28;100079;-70
2022/12/10 07:29:18;;;;;;;127.85;36.40;;;;;;;;;;5004145;28;99051;-70
2022/12/10 07:31:44;;;;;;;87.47;34.75;;;;;;;;;;4994866;28;99104;-70
2022/12/10 07:34:11;;;;;;;97.03;37.05;;;;;;;;;;4996957;28;100617;-70
2022/12/10 07:36:38;;;;;;;118.00;35.50;;;;;;;;;;4996271;28;100142;-70
2022/12/10 07:39:05;;;;;;;160.98;33.63;;;;;;;;;;4998620;28;99272;-70
2022/12/10 07:41:31;;;;;;;100.72;33.30;;;;;;;;;;4984737;28;100434;-70
2022/12/10 07:43:58;;;;;;;101.00;33.85;;;;;;;;;;5000897;28;100007;-70
2022/12/10 07:46:26;;;;;;;101.65;35.60;;;;;;;;;;5002479;28;99638;-70
2022/12/10 07:48:53;;;;;;;115.35;34.63;;;;;;;;;;4995937;28;99141;-70
2022/12/10 07:51:20;;;;;;;90.40;33.90;;;;;;;;;;5003630;28;100241;-70
2022/12/10 07:53:47;;;;;;;98.60;34.00;;;;;;;;;;4993202;28;99466;-70
2022/12/10 07:56:14;;;;;;;97.55;32.45;;;;;;;;;;4989552;28;98587;-71
2022/12/10 07:58:41;;;;;;;106.70;36.72;;;;;;;;;;4995861;28;100077;-71
2022/12/10 08:01:15;;;;;;;134.15;37.83;;;;;;;;;;5002950;28;100557;-71
2022/12/10 08:03:42;;;;;;;121.22;38.28;;;;;;;;;;4994937;28;99156;-71
2022/12/10 08:06:10;;;;;;;133.05;38.45;;;;;;;;;;5000595;28;100055;-71
2022/12/10 08:08:37;;;;;;;160.93;37.40;;;;;;;;;;4987787;28;100305;-71
2022/12/10 08:11:04;;;;;;;137.48;37.38;;;;;;;;;;4984606;28;99445;-70
2022/12/10 08:13:31;;;;;;;162.25;39.40;;;;;;;;;;4991238;28;100185;-71
2022/12/10 08:16:08;;;;;;;158.10;37.50;;;;;;;;;;4986965;28;100099;-70
2022/12/10 08:18:34;;;;;;;145.55;36.42;;;;;;;;;;4995500;28;99962;-71
2022/12/10 08:21:08;;;;;;;115.07;36.33;;;;;;;;;;4987552;28;100330;-72
2022/12/10 08:23:34;;;;;;;156.20;39.17;;;;;;;;;;4995958;28;100028;-72
2022/12/10 08:26:05;;;;;;;139.10;37.88;;;;;;;;;;4993929;28;100263;-72
2022/12/10 08:28:31;;;;;;;107.43;36.55;;;;;;;;;;4994855;28;99883;-70
2022/12/10 08:30:58;;;;;;;124.82;36.53;;;;;;;;;;4987903;28;99996;-70
2022/12/10 08:33:24;;;;;;;128.95;35.35;;;;;;;;;;4990723;28;98807;-70
2022/12/10 08:35:50;;;;;;;155.98;38.25;;;;;;;;;;4991418;28;100194;-70
2022/12/10 08:38:17;;;;;;;119.32;34.42;;;;;;;;;;4996390;28;99118;-70
2022/12/10 08:40:44;;;;;;;96.63;34.70;;;;;;;;;;4994338;28;101140;-70
2022/12/10 08:43:10;;;;;;;103.13;32.30;;;;;;;;;;4994735;28;100073;-72
2022/12/10 08:45:36;;;;;;;122.07;35.55;;;;;;;;;;4996200;28;99218;-71
2022/12/10 08:48:03;;;;;;;101.93;32.83;;;;;;;;;;4988380;28;99216;-71
2022/12/10 08:50:30;;;;;;;111.93;37.20;;;;;;;;;;4981840;28;99047;-71
2022/12/10 08:52:56;;;;;;;92.40;36.42;;;;;;;;;;4991987;28;99259;-71
2022/12/10 08:55:24;;;;;;;100.60;36.00;;;;;;;;;;4990461;28;99094;-72
2022/12/10 08:57:51;;;;;;;108.60;30.48;;;;;;;;;;4992304;28;99416;-72
2022/12/10 09:00:18;;;;;;;120.63;34.80;;;;;;;;;;4992044;28;100369;-71
2022/12/10 09:02:45;;;;;;;97.18;31.88;;;;;;;;;;4991016;28;100176;-72
2022/12/10 09:05:12;;;;;;;89.15;32.92;;;;;;;;;;4999217;28;100036;-73
2022/12/10 09:07:38;;;;;;;86.47;34.33;;;;;;;;;;4991866;28;99491;-72
2022/12/10 09:10:05;;;;;;;105.15;34.45;;;;;;;;;;4995946;28;100780;-71
2022/12/10 09:12:32;;;;;;;110.25;34.88;;;;;;;;;;4998263;28;100461;-70
2022/12/10 09:14:59;;;;;;;114.30;34.10;;;;;;;;;;4992069;28;100007;-71
2022/12/10 09:17:26;;;;;;;110.60;34.90;;;;;;;;;;4986529;28;99667;-71
2022/12/10 09:19:52;;;;;;;95.07;35.80;;;;;;;;;;4995764;28;100697;-71
2022/12/10 09:22:18;;;;;;;95.72;33.55;;;;;;;;;;4991857;28;101187;-71
2022/12/10 09:24:45;;;;;;;96.90;32.13;;;;;;;;;;4982648;28;100881;-71
2022/12/10 09:27:11;;;;;;;67.40;28.60;;;;;;;;;;4984928;28;99657;-71
2022/12/10 09:29:37;;;;;;;82.47;30.63;;;;;;;;;;4989666;28;100130;-71
2022/12/10 09:32:04;;;;;;;89.97;30.52;;;;;;;;;;4994512;28;100980;-71
2022/12/10 09:34:30;;;;;;;79.70;30.60;;;;;;;;;;4995003;28;99967;-71
2022/12/10 09:36:57;;;;;;;67.80;29.20;;;;;;;;;;4987648;28;100584;-72
2022/12/10 09:39:23;;;;;;;86.70;31.55;;;;;;;;;;4992318;28;100583;-71
2022/12/10 09:41:53;;;;;;;58.38;27.83;;;;;;;;;;4988945;28;100254;-71
2022/12/10 09:44:45;;;;;;;54.45;21.33;;;;;;;;;;4993487;28;99349;-71
2022/12/10 09:47:12;;;;;;;65.10;29.07;;;;;;;;;;4964079;28;100685;-71
2022/12/10 09:49:57;;;;;;;82.28;28.05;;;;;;;;;;4992700;28;99434;-71
2022/12/10 09:52:26;;;;;;;69.47;27.98;;;;;;;;;;4999504;28;100149;-72
2022/12/10 09:54:56;;;;;;;72.18;27.73;;;;;;;;;;5003691;28;99964;-71
2022/12/10 09:57:30;;;;;;;86.20;30.15;;;;;;;;;;5003008;28;100906;-71
2022/12/10 10:00:00;;;;;;;66.60;28.70;;;;;;;;;;5003066;28;102279;-71
2022/12/10 10:02:29;;;;;;;70.97;29.85;;;;;;;;;;5004231;28;100388;-71
2022/12/10 10:05:09;;;;;;;72.70;28.38;;;;;;;;;;5006602;28;99971;-71
2022/12/10 10:07:42;;;;;;;78.70;29.17;;;;;;;;;;4991058;28;100565;-71
2022/12/10 10:10:29;;;;;;;73.50;29.20;;;;;;;;;;4999002;28;100528;-71
2022/12/10 10:13:08;;;;;;;88.40;29.77;;;;;;;;;;4991966;28;99626;-71
2022/12/10 10:15:36;;;;;;;71.75;27.38;;;;;;;;;;4988126;28;99379;-71
2022/12/10 10:18:11;;;;;;;69.60;26.55;;;;;;;;;;5003879;28;99216;-72
2022/12/10 10:20:38;;;;;;;72.13;26.65;;;;;;;;;;5000469;28;101022;-72
2022/12/10 10:23:05;;;;;;;70.80;26.77;;;;;;;;;;5000652;28;100091;-71
2022/12/10 10:25:32;;;;;;;69.22;26.67;;;;;;;;;;4999723;28;100355;-71
2022/12/10 10:27:58;;;;;;;66.65;26.67;;;;;;;;;;5002940;28;100334;-71
2022/12/10 10:30:25;;;;;;;66.63;27.75;;;;;;;;;;5003486;28;100093;-71
2022/12/10 10:32:53;;;;;;;109.32;30.48;;;;;;;;;;5001960;28;100068;-71
2022/12/10 10:35:42;;;;;;;75.57;29.60;;;;;;;;;;4997069;28;100703;-71
2022/12/10 10:38:14;;;;;;;94.90;31.80;;;;;;;;;;4999781;28;100143;-72
2022/12/10 10:40:42;;;;;;;84.57;26.77;;;;;;;;;;4987504;28;100580;-71
2022/12/10 10:43:16;;;;;;;106.28;29.80;;;;;;;;;;4990200;28;100300;-73
2022/12/10 10:45:47;;;;;;;70.40;27.15;;;;;;;;;;4997803;28;99971;-72
2022/12/10 10:48:16;;;;;;;88.97;29.05;;;;;;;;;;4995545;28;100080;-71
2022/12/10 10:51:05;;;;;;;83.78;27.17;;;;;;;;;;5001045;28;99935;-71
2022/12/10 10:53:31;;;;;;;90.10;28.52;;;;;;;;;;4984644;28;100080;-71
2022/12/10 10:56:05;;;;;;;79.82;27.05;;;;;;;;;;4995721;28;99294;-71
2022/12/10 10:58:33;;;;;;;89.82;29.50;;;;;;;;;;4992021;28;99130;-71
2022/12/10 11:01:01;;;;;;;79.63;28.00;;;;;;;;;;4998483;28;100474;-71
2022/12/10 11:03:28;;;;;;;68.80;27.60;;;;;;;;;;4989162;28;100039;-71
2022/12/10 11:05:56;;;;;;;72.82;26.48;;;;;;;;;;4997315;28;99305;-72
2022/12/10 11:08:24;;;;;;;84.50;31.88;;;;;;;;;;5000227;28;99940;-72
2022/12/10 11:10:51;;;;;;;98.22;29.40;;;;;;;;;;5002313;28;99435;-72
2022/12/10 11:13:25;;;;;;;81.03;30.45;;;;;;;;;;4998685;28;100595;-70
2022/12/10 11:15:55;;;;;;;71.93;27.17;;;;;;;;;;4999910;28;99604;-70
2022/12/10 11:18:24;;;;;;;72.35;25.30;;;;;;;;;;4987106;28;99452;-71
2022/12/10 11:21:09;;;;;;;50.00;22.23;;;;;;;;;;4990349;28;99480;-71
2022/12/10 11:23:40;;;;;;;55.88;24.42;;;;;;;;;;4998993;28;100278;-71
2022/12/10 11:26:24;;;;;;;61.00;24.30;;;;;;;;;;5001935;28;99929;-72
2022/12/10 11:28:57;;;;;;;56.97;26.02;;;;;;;;;;4993106;28;99646;-71
2022/12/10 11:31:33;;;;;;;57.28;26.83;;;;;;;;;;4993314;28;100511;-71
2022/12/10 11:34:17;;;;;;;56.13;24.45;;;;;;;;;;4995217;28;99896;-71
2022/12/10 11:36:43;;;;;;;59.35;24.85;;;;;;;;;;4998461;28;101372;-71
2022/12/10 11:39:10;;;;;;;58.85;25.90;;;;;;;;;;4999808;28;100587;-71
2022/12/10 11:41:45;;;;;;;46.42;21.95;;;;;;;;;;4999546;28;100399;-71
2022/12/10 11:44:27;;;;;;;60.50;25.38;;;;;;;;;;4999119;28;100330;-71
2022/12/10 11:47:01;;;;;;;59.90;24.75;;;;;;;;;;5006679;28;99706;-72
2022/12/10 11:49:35;;;;;;;70.90;25.30;;;;;;;;;;5003823;28;100239;-71
2022/12/10 11:52:09;;;;;;;79.10;27.02;;;;;;;;;;4993401;28;102683;-70
2022/12/10 11:54:35;;;;;;;69.28;26.38;;;;;;;;;;5002533;28;100189;-70
2022/12/10 11:57:05;;;;;;;99.00;25.05;;;;;;;;;;4987044;28;99663;-71
2022/12/10 11:59:40;;;;;;;76.28;27.10;;;;;;;;;;4995017;28;100450;-71
2022/12/10 12:02:26;;;;;;;83.00;25.85;;;;;;;;;;4996594;28;100375;-71
2022/12/10 12:05:07;;;;;;;55.22;24.88;;;;;;;;;;4993076;28;101095;-71
2022/12/10 12:07:38;;;;;;;58.05;26.17;;;;;;;;;;5002764;28;99224;-71
2022/12/10 12:10:23;;;;;;;67.32;26.25;;;;;;;;;;5002024;28;98565;-71
2022/12/10 12:12:55;;;;;;;81.28;27.30;;;;;;;;;;4998163;28;99959;-71
2022/12/10 12:15:27;;;;;;;63.50;27.30;;;;;;;;;;5000253;28;100220;-71
2022/12/10 12:17:57;;;;;;;56.38;22.88;;;;;;;;;;4999897;28;99505;-71
2022/12/10 12:20:28;;;;;;;66.78;25.75;;;;;;;;;;5001441;28;98989;-71
2022/12/10 12:22:58;;;;;;;58.72;23.83;;;;;;;;;;5002650;28;99558;-70
2022/12/10 12:25:29;;;;;;;53.63;23.63;;;;;;;;;;5001177;28;99356;-70
2022/12/10 12:28:10;;;;;;;60.83;25.52;;;;;;;;;;5002728;28;99325;-71
2022/12/10 12:30:37;;;;;;;60.28;24.58;;;;;;;;;;5003900;28;100150;-71
2022/12/10 12:33:11;;;;;;;58.92;23.38;;;;;;;;;;4994744;28;100026;-70
2022/12/10 12:35:57;;;;;;;113.47;27.45;;;;;;;;;;4994648;28;99365;-71
2022/12/10 12:38:28;;;;;;;89.82;21.55;;;;;;;;;;4995128;28;100157;-71
2022/12/10 12:41:04;;;;;;;63.35;24.00;;;;;;;;;;4998188;28;98951;-72
2022/12/10 12:43:37;;;;;;;57.13;22.77;;;;;;;;;;5002012;28;99740;-71
2022/12/10 12:46:08;;;;;;;57.50;26.40;;;;;;;;;;5000296;28;99186;-70
2022/12/10 12:48:50;;;;;;;58.13;26.50;;;;;;;;;;5001275;28;99141;-72
2022/12/10 12:51:19;;;;;;;61.15;25.45;;;;;;;;;;5000021;28;100360;-70
2022/12/10 12:53:45;;;;;;;61.25;24.92;;;;;;;;;;5005775;28;101062;-70
2022/12/10 12:56:30;;;;;;;70.80;26.30;;;;;;;;;;5001850;28;100877;-70
2022/12/10 12:59:03;;;;;;;89.65;26.13;;;;;;;;;;5000912;28;100759;-70
2022/12/10 13:01:36;;;;;;;73.43;26.23;;;;;;;;;;5001911;28;100121;-69
2022/12/10 13:04:03;;;;;;;73.10;28.73;;;;;;;;;;5001889;28;99851;-69
2022/12/10 13:06:31;;;;;;;69.55;27.02;;;;;;;;;;4993929;28;99280;-70
2022/12/10 13:09:15;;;;;;;56.38;25.15;;;;;;;;;;5001130;28;99469;-69
2022/12/10 13:11:44;;;;;;;72.57;27.80;;;;;;;;;;5000363;28;99081;-70
2022/12/10 13:14:15;;;;;;;59.13;26.38;;;;;;;;;;5002280;28;99496;-70
2022/12/10 13:16:43;;;;;;;75.50;27.10;;;;;;;;;;4997632;28;98958;-71
2022/12/10 13:19:19;;;;;;;72.32;28.20;;;;;;;;;;5002247;28;100929;-70
2022/12/10 13:21:57;;;;;;;72.32;29.17;;;;;;;;;;5000941;28;99321;-69
2022/12/10 13:24:36;;;;;;;82.68;30.05;;;;;;;;;;5000766;28;99437;-70
2022/12/10 13:27:15;;;;;;;59.70;22.83;;;;;;;;;;5003854;28;99644;-71
2022/12/10 13:29:53;;;;;;;70.90;27.77;;;;;;;;;;5004298;28;100111;-71
2022/12/10 13:32:29;;;;;;;74.97;24.95;;;;;;;;;;5004452;28;99395;-72
2022/12/10 13:35:07;;;;;;;76.43;28.75;;;;;;;;;;5006388;28;100319;-71
2022/12/10 13:37:53;;;;;;;90.95;26.58;;;;;;;;;;5004485;28;98901;-71
2022/12/10 13:40:23;;;;;;;59.80;23.75;;;;;;;;;;5007727;28;99400;-71
2022/12/10 13:45:41;;;;;;;79.75;26.65;;;;;;;;;;5004410;28;100290;-70
2022/12/10 13:48:11;;;;;;;62.83;25.13;;;;;;;;;;5005431;28;100378;-70
2022/12/10 13:50:55;;;;;;;102.00;25.92;;;;;;;;;;5005073;28;100651;-70
2022/12/10 13:53:28;;;;;;;82.15;28.40;;;;;;;;;;5002454;28;100295;-70
2022/12/10 13:55:54;;;;;;;67.03;26.02;;;;;;;;;;5006032;28;100351;-71
2022/12/10 13:58:30;;;;;;;56.90;25.00;;;;;;;;;;4999868;28;100094;-70
2022/12/10 14:01:13;;;;;;;104.70;27.92;;;;;;;;;;4999169;28;100023;-70
2022/12/10 14:03:45;;;;;;;75.93;28.23;;;;;;;;;;5009063;28;99465;-71
2022/12/10 14:06:11;;;;;;;82.10;27.83;;;;;;;;;;5005776;28;99761;-70
2022/12/10 14:08:40;;;;;;;79.15;30.33;;;;;;;;;;5003943;28;99486;-70
2022/12/10 14:11:12;;;;;;;77.15;31.77;;;;;;;;;;5006190;28;100796;-70
2022/12/10 14:13:42;;;;;;;106.07;29.80;;;;;;;;;;5005289;28;100731;-70
2022/12/10 14:16:11;;;;;;;86.75;29.80;;;;;;;;;;5006155;28;100203;-70
2022/12/10 14:18:38;;;;;;;63.70;25.23;;;;;;;;;;5003334;28;100061;-70
2022/12/10 14:21:06;;;;;;;78.95;29.20;;;;;;;;;;5004186;28;100352;-71
2022/12/10 14:23:33;;;;;;;73.90;28.63;;;;;;;;;;5005644;28;100438;-71
2022/12/10 14:26:14;;;;;;;82.13;27.30;;;;;;;;;;5008121;28;99883;-71
2022/12/10 14:28:45;;;;;;;80.50;26.65;;;;;;;;;;4997361;28;99470;-70
2022/12/10 14:31:31;;;;;;;72.38;28.83;;;;;;;;;;5003059;28;99428;-71